createdAt,value
2022-11-24T00:00:30.276Z,6.50
2022-11-24T00:02:56.962Z,6.40
2022-11-24T00:05:23.656Z,6.40
2022-11-24T00:07:50.360Z,6.50
2022-11-24T00:10:17.127Z,6.50
2022-11-24T00:12:43.698Z,6.40
2022-11-24T00:15:10.434Z,6.50
2022-11-24T00:17:37.009Z,6.50
2022-11-24T00:20:03.900Z,6.50
2022-11-24T00:22:30.904Z,6.50
2022-11-24T00:24:57.452Z,6.50
2022-11-24T00:27:24.033Z,6.50
2022-11-24T00:29:50.588Z,6.50
2022-11-24T00:32:17.174Z,6.50
2022-11-24T00:34:43.761Z,6.50
2022-11-24T00:37:10.357Z,6.50
2022-11-24T00:39:36.932Z,6.50
2022-11-24T00:42:03.575Z,6.50
2022-11-24T00:44:30.182Z,6.50
2022-11-24T00:46:56.922Z,6.40
2022-11-24T00:49:23.580Z,6.50
2022-11-24T00:51:50.167Z,6.50
2022-11-24T00:54:16.743Z,6.40
2022-11-24T00:56:43.331Z,6.40
2022-11-24T00:59:09.917Z,6.40
2022-11-24T01:01:36.741Z,6.50
2022-11-24T01:04:04.016Z,6.50
2022-11-24T01:06:30.973Z,6.40
2022-11-24T01:08:57.973Z,6.40
2022-11-24T01:11:42.683Z,6.40
2022-11-24T01:14:09.262Z,6.50
2022-11-24T01:16:35.833Z,6.40
2022-11-24T01:19:02.436Z,6.40
2022-11-24T01:21:29.008Z,6.40
2022-11-24T01:23:55.610Z,6.30
2022-11-24T01:26:23.000Z,6.30
2022-11-24T01:28:54.365Z,6.30
2022-11-24T01:31:21.145Z,6.40
2022-11-24T01:33:47.794Z,6.30
2022-11-24T01:36:14.463Z,6.30
2022-11-24T01:38:41.120Z,6.30
2022-11-24T01:41:11.733Z,6.30
2022-11-24T01:43:38.853Z,6.40
2022-11-24T01:46:27.801Z,6.40
2022-11-24T01:49:21.719Z,6.30
2022-11-24T01:52:03.775Z,6.40
2022-11-24T01:54:49.897Z,6.40
2022-11-24T01:57:23.272Z,6.40
2022-11-24T01:59:54.820Z,6.40
2022-11-24T02:02:21.967Z,6.30
2022-11-24T02:04:49.801Z,6.30
2022-11-24T02:07:17.211Z,6.30
2022-11-24T02:09:50.106Z,6.30
2022-11-24T02:12:16.928Z,6.30
2022-11-24T02:14:44.587Z,6.30
2022-11-24T02:17:11.211Z,6.30
2022-11-24T02:19:40.741Z,6.30
2022-11-24T02:22:22.990Z,6.30
2022-11-24T02:24:49.569Z,6.30
2022-11-24T02:27:16.373Z,6.30
2022-11-24T02:29:43.064Z,6.30
2022-11-24T02:32:11.192Z,6.30
2022-11-24T02:34:37.994Z,6.20
2022-11-24T02:37:04.602Z,6.20
2022-11-24T02:39:31.180Z,6.20
2022-11-24T02:42:03.493Z,6.20
2022-11-24T02:44:35.292Z,6.10
2022-11-24T02:47:10.482Z,6.10
2022-11-24T02:49:37.111Z,6.10
2022-11-24T02:52:04.695Z,6.00
2022-11-24T02:54:31.717Z,6.10
2022-11-24T02:56:58.645Z,6.10
2022-11-24T02:59:25.508Z,6.10
2022-11-24T03:01:52.327Z,6.10
2022-11-24T03:04:18.997Z,6.10
2022-11-24T03:06:45.585Z,6.20
2022-11-24T03:09:12.190Z,6.20
2022-11-24T03:11:39.145Z,6.20
2022-11-24T03:14:06.266Z,6.20
2022-11-24T03:16:33.406Z,6.20
2022-11-24T03:19:00.672Z,6.20
2022-11-24T03:21:28.009Z,6.20
2022-11-24T03:23:54.628Z,6.20
2022-11-24T03:26:22.534Z,6.20
2022-11-24T03:28:49.371Z,6.30
2022-11-24T03:31:16.049Z,6.30
2022-11-24T03:33:42.724Z,6.30
2022-11-24T03:36:09.620Z,6.30
2022-11-24T03:38:36.181Z,6.30
2022-11-24T03:41:02.967Z,6.30
2022-11-24T03:43:29.561Z,6.30
2022-11-24T03:45:56.349Z,6.30
2022-11-24T03:48:23.061Z,6.30
2022-11-24T03:51:00.217Z,6.40
2022-11-24T03:53:28.445Z,6.40
2022-11-24T03:55:55.473Z,6.40
2022-11-24T03:58:22.639Z,6.40
2022-11-24T04:00:50.218Z,6.50
2022-11-24T04:03:16.984Z,6.40
2022-11-24T04:05:43.572Z,6.40
2022-11-24T04:08:10.317Z,6.40
2022-11-24T04:10:38.304Z,6.40
2022-11-24T04:13:11.316Z,6.50
2022-11-24T04:15:39.510Z,6.40
2022-11-24T04:18:06.570Z,6.50
2022-11-24T04:20:33.676Z,6.40
2022-11-24T04:23:00.455Z,6.50
2022-11-24T04:25:27.065Z,6.40
2022-11-24T04:27:55.024Z,6.40
2022-11-24T04:30:22.732Z,6.40
2022-11-24T04:32:49.595Z,6.50
2022-11-24T04:35:16.253Z,6.50
2022-11-24T04:37:42.966Z,6.50
2022-11-24T04:40:11.076Z,6.50
2022-11-24T04:42:37.832Z,6.50
2022-11-24T04:45:06.299Z,6.50
2022-11-24T04:47:33.107Z,6.50
2022-11-24T04:49:59.697Z,6.50
2022-11-24T04:52:26.537Z,6.50
2022-11-24T04:54:53.146Z,6.50
2022-11-24T04:57:23.043Z,6.60
2022-11-24T04:59:51.040Z,6.50
2022-11-24T05:02:17.632Z,6.50
2022-11-24T05:04:44.629Z,6.50
2022-11-24T05:07:17.996Z,6.50
2022-11-24T05:09:58.858Z,6.50
2022-11-24T05:12:27.284Z,6.50
2022-11-24T05:14:53.823Z,6.50
2022-11-24T05:17:20.404Z,6.50
2022-11-24T05:19:46.963Z,6.50
2022-11-24T05:22:13.545Z,6.50
2022-11-24T05:24:40.128Z,6.50
2022-11-24T05:27:06.727Z,6.50
2022-11-24T05:29:33.296Z,6.50
2022-11-24T05:31:59.852Z,6.50
2022-11-24T05:34:26.447Z,6.50
2022-11-24T05:36:52.996Z,6.50
2022-11-24T05:39:22.607Z,6.50
2022-11-24T05:41:49.176Z,6.50
2022-11-24T05:44:15.727Z,6.50
2022-11-24T05:46:42.367Z,6.50
2022-11-24T05:49:08.998Z,6.60
2022-11-24T05:51:35.556Z,6.60
2022-11-24T05:54:02.143Z,6.60
2022-11-24T05:56:28.713Z,6.70
2022-11-24T05:58:55.284Z,6.70
2022-11-24T06:01:21.864Z,6.70
2022-11-24T06:03:48.429Z,6.60
2022-11-24T06:06:14.986Z,6.70
2022-11-24T06:08:41.605Z,6.70
2022-11-24T06:11:09.469Z,6.70
2022-11-24T06:13:36.055Z,6.70
2022-11-24T06:16:02.974Z,6.70
2022-11-24T06:18:29.564Z,6.70
2022-11-24T06:21:10.416Z,6.70
2022-11-24T06:23:37.692Z,6.70
2022-11-24T06:26:04.708Z,6.60
2022-11-24T06:28:31.338Z,6.60
2022-11-24T06:31:02.340Z,6.60
2022-11-24T06:33:33.494Z,6.70
2022-11-24T06:36:01.727Z,6.70
2022-11-24T06:38:28.515Z,6.60
2022-11-24T06:41:03.209Z,6.60
2022-11-24T06:43:30.934Z,6.60
2022-11-24T06:45:58.441Z,6.50
2022-11-24T06:48:26.324Z,6.60
2022-11-24T06:50:53.466Z,6.50
2022-11-24T06:53:20.104Z,6.50
2022-11-24T06:55:47.173Z,6.50
2022-11-24T06:58:13.744Z,6.50
2022-11-24T07:00:40.339Z,6.50
2022-11-24T07:03:06.975Z,6.50
2022-11-24T07:05:33.636Z,6.50
2022-11-24T07:08:00.337Z,6.50
2022-11-24T07:10:26.948Z,6.40
2022-11-24T07:12:53.519Z,6.50
2022-11-24T07:15:20.080Z,6.60
2022-11-24T07:17:46.642Z,6.80
2022-11-24T07:20:13.373Z,6.90
2022-11-24T07:22:39.969Z,6.90
2022-11-24T07:25:06.789Z,7.10
2022-11-24T07:27:33.491Z,7.30
2022-11-24T07:30:00.041Z,7.40
2022-11-24T07:32:26.691Z,7.30
2022-11-24T07:34:53.247Z,7.20
2022-11-24T07:37:19.842Z,7.00
2022-11-24T07:39:46.392Z,6.90
2022-11-24T07:42:12.978Z,6.90
2022-11-24T07:44:39.529Z,6.80
2022-11-24T07:47:06.305Z,6.80
2022-11-24T07:49:32.886Z,6.80
2022-11-24T07:51:59.457Z,6.90
2022-11-24T07:54:26.055Z,6.90
2022-11-24T07:56:52.618Z,7.00
2022-11-24T07:59:19.189Z,7.00
2022-11-24T08:01:45.807Z,7.10
2022-11-24T08:04:12.519Z,7.10
2022-11-24T08:06:44.499Z,7.10
2022-11-24T08:09:13.564Z,7.10
2022-11-24T08:11:40.177Z,7.20
2022-11-24T08:14:06.837Z,7.20
2022-11-24T08:16:33.464Z,7.30
2022-11-24T08:19:00.115Z,7.30
2022-11-24T08:21:26.703Z,7.30
2022-11-24T08:23:57.491Z,7.30
2022-11-24T08:26:25.332Z,7.50
2022-11-24T08:28:57.574Z,7.60
2022-11-24T08:31:26.285Z,7.60
2022-11-24T08:33:55.428Z,7.70
2022-11-24T08:36:22.008Z,7.80
2022-11-24T08:38:48.596Z,7.80
2022-11-24T08:41:16.734Z,7.80
2022-11-24T08:43:43.383Z,7.80
2022-11-24T08:46:12.220Z,7.80
2022-11-24T08:48:39.171Z,7.80
2022-11-24T08:51:09.137Z,7.90
2022-11-24T08:53:35.723Z,7.90
2022-11-24T08:56:03.668Z,8.00
2022-11-24T08:58:30.669Z,8.00
2022-11-24T09:01:07.629Z,8.00
2022-11-24T09:03:34.547Z,8.10
2022-11-24T09:06:01.985Z,8.10
2022-11-24T09:08:29.972Z,8.10
2022-11-24T09:11:08.085Z,8.20
2022-11-24T09:13:35.654Z,8.20
2022-11-24T09:16:07.443Z,8.20
2022-11-24T09:18:34.462Z,8.20
2022-11-24T09:21:07.110Z,8.20
2022-11-24T09:23:33.863Z,8.30
2022-11-24T09:26:11.747Z,8.40
2022-11-24T09:28:38.580Z,8.40
2022-11-24T09:31:07.614Z,8.40
2022-11-24T09:33:34.950Z,8.40
2022-11-24T09:36:01.670Z,8.50
2022-11-24T09:38:28.555Z,8.50
2022-11-24T09:40:55.579Z,8.50
2022-11-24T09:43:40.328Z,8.40
2022-11-24T09:46:17.556Z,8.40
2022-11-24T09:48:48.809Z,8.30
2022-11-24T09:51:16.055Z,8.30
2022-11-24T09:53:54.918Z,8.20
2022-11-24T09:56:24.846Z,8.20
2022-11-24T09:59:02.731Z,8.10
2022-11-24T10:01:37.441Z,8.00
2022-11-24T10:04:12.182Z,7.90
2022-11-24T10:06:46.221Z,7.90
2022-11-24T10:09:36.581Z,7.80
2022-11-24T10:12:06.023Z,7.60
2022-11-24T10:14:50.488Z,7.50
2022-11-24T10:17:28.627Z,7.50
2022-11-24T10:20:06.042Z,7.30
2022-11-24T10:23:01.697Z,7.20
2022-11-24T10:25:53.228Z,7.20
2022-11-24T10:28:19.849Z,7.20
2022-11-24T10:30:46.584Z,7.20
2022-11-24T10:33:24.247Z,7.20
2022-11-24T10:35:57.011Z,7.30
2022-11-24T10:38:45.537Z,7.20
2022-11-24T10:41:23.164Z,7.20
2022-11-24T10:43:51.558Z,7.20
2022-11-24T10:46:26.345Z,7.20
2022-11-24T10:49:03.352Z,7.20
2022-11-24T10:51:56.757Z,7.20
2022-11-24T10:54:24.040Z,7.20
2022-11-24T10:56:52.407Z,7.20
2022-11-24T10:59:24.895Z,7.20
2022-11-24T11:01:53.089Z,7.20
2022-11-24T11:04:27.986Z,7.30
2022-11-24T11:07:21.293Z,7.30
2022-11-24T11:09:48.570Z,7.40
2022-11-24T11:15:23.055Z,7.50
2022-11-24T11:17:50.528Z,7.50
2022-11-24T11:20:22.247Z,7.50
2022-11-24T11:22:50.415Z,7.50
2022-11-24T11:25:45.887Z,7.50
2022-11-24T11:28:23.750Z,7.50
2022-11-24T11:31:18.053Z,7.40
2022-11-24T11:34:03.831Z,7.50
2022-11-24T11:36:33.138Z,7.50
2022-11-24T11:38:59.845Z,7.60
2022-11-24T11:41:32.386Z,7.60
2022-11-24T11:44:36.621Z,7.60
2022-11-24T11:47:17.709Z,7.60
2022-11-24T11:49:44.867Z,7.70
2022-11-24T11:52:37.805Z,7.70
2022-11-24T11:55:32.113Z,7.80
2022-11-24T11:58:36.293Z,8.10
2022-11-24T12:01:29.291Z,8.20
2022-11-24T12:04:13.673Z,8.20
2022-11-24T12:07:17.839Z,8.20
2022-11-24T12:10:20.074Z,8.10
2022-11-24T12:12:46.601Z,8.00
2022-11-24T12:15:22.638Z,8.10
2022-11-24T12:18:03.310Z,8.20
2022-11-24T12:20:41.837Z,8.30
2022-11-24T12:23:45.194Z,8.50
2022-11-24T12:26:23.747Z,8.50
2022-11-24T12:29:18.091Z,8.60
2022-11-24T12:32:11.038Z,8.80
2022-11-24T12:35:11.409Z,9.30
2022-11-24T12:37:57.882Z,9.40
2022-11-24T12:40:30.586Z,9.60
2022-11-24T12:43:28.939Z,9.50
2022-11-24T12:46:05.038Z,9.40
2022-11-24T12:49:02.577Z,9.20
2022-11-24T12:51:54.055Z,9.10
2022-11-24T12:54:22.875Z,8.90
2022-11-24T12:57:11.231Z,8.90
2022-11-24T13:00:07.700Z,8.80
2022-11-24T13:03:05.290Z,8.70
2022-11-24T13:05:55.599Z,8.70
2022-11-24T13:08:23.324Z,8.60
2022-11-24T13:10:57.953Z,8.60
2022-11-24T13:13:35.371Z,8.60
2022-11-24T13:19:00.561Z,8.40
2022-11-24T13:21:42.316Z,8.40
2022-11-24T13:24:19.124Z,8.40
2022-11-24T13:26:49.421Z,8.40
2022-11-24T13:29:27.972Z,8.40
2022-11-24T13:31:56.226Z,8.30
2022-11-24T13:34:41.386Z,8.30
2022-11-24T13:37:31.833Z,8.30
2022-11-24T13:40:12.953Z,8.30
2022-11-24T13:42:54.796Z,8.20
2022-11-24T13:45:39.602Z,8.30
2022-11-24T13:48:18.413Z,8.20
2022-11-24T13:50:51.105Z,8.20
2022-11-24T13:53:43.991Z,8.20
2022-11-24T13:56:13.395Z,8.20
2022-11-24T13:58:39.924Z,8.30
2022-11-24T14:01:21.665Z,8.20
2022-11-24T14:04:28.005Z,8.30
2022-11-24T14:06:48.144Z,8.30
2022-11-24T14:09:23.820Z,8.30
2022-11-24T14:12:35.687Z,8.20
2022-11-24T14:15:22.476Z,8.10
2022-11-24T14:17:49.044Z,8.10
2022-11-24T14:20:27.096Z,8.10
2022-11-24T14:22:53.960Z,8.00
2022-11-24T14:25:28.189Z,8.00
2022-11-24T14:27:54.837Z,7.90
2022-11-24T14:30:24.128Z,7.90
2022-11-24T14:33:13.807Z,7.90
2022-11-24T14:35:45.238Z,7.80
2022-11-24T14:38:13.099Z,7.70
2022-11-24T14:40:43.597Z,7.70
2022-11-24T14:43:20.534Z,7.80
2022-11-24T14:45:53.312Z,7.80
2022-11-24T14:48:25.769Z,7.80
2022-11-24T14:50:53.777Z,7.80
2022-11-24T14:53:26.047Z,7.80
2022-11-24T14:56:27.396Z,7.80
2022-11-24T14:58:55.059Z,7.80
2022-11-24T15:01:27.698Z,7.80
2022-11-24T15:07:26.833Z,7.70
2022-11-24T15:09:55.663Z,7.70
2022-11-24T15:12:36.034Z,7.70
2022-11-24T15:15:08.751Z,7.70
2022-11-24T15:17:35.380Z,7.70
2022-11-24T15:20:16.335Z,7.70
2022-11-24T15:22:44.518Z,7.70
2022-11-24T15:25:25.123Z,7.70
2022-11-24T15:27:52.295Z,7.70
2022-11-24T15:30:18.979Z,7.70
2022-11-24T15:32:53.471Z,7.70
2022-11-24T15:35:20.367Z,7.70
2022-11-24T15:37:46.931Z,7.60
2022-11-24T15:40:14.061Z,7.60
2022-11-24T15:42:41.061Z,7.50
2022-11-24T15:45:08.019Z,7.60
2022-11-24T15:47:34.582Z,7.60
2022-11-24T15:50:01.137Z,7.60
2022-11-24T15:52:27.792Z,7.60
2022-11-24T15:54:56.546Z,7.60
2022-11-24T15:57:23.136Z,7.50
2022-11-24T15:59:49.724Z,7.40
2022-11-24T16:02:16.333Z,7.40
2022-11-24T16:04:42.942Z,7.40
2022-11-24T16:07:12.251Z,7.30
2022-11-24T16:09:39.157Z,7.30
2022-11-24T16:12:06.260Z,7.30
2022-11-24T16:14:32.914Z,7.30
2022-11-24T16:16:59.804Z,7.20
2022-11-24T16:19:26.396Z,7.20
2022-11-24T16:21:53.301Z,7.10
2022-11-24T16:24:19.880Z,7.00
2022-11-24T16:26:46.431Z,7.00
2022-11-24T16:29:13.004Z,6.90
2022-11-24T16:31:39.582Z,6.90
2022-11-24T16:34:06.166Z,6.70
2022-11-24T16:36:32.741Z,6.70
2022-11-24T16:39:00.009Z,6.60
2022-11-24T16:41:26.613Z,6.50
2022-11-24T16:43:53.169Z,6.50
2022-11-24T16:46:23.392Z,6.50
2022-11-24T16:48:52.552Z,6.40
2022-11-24T16:51:22.014Z,6.30
2022-11-24T16:53:56.255Z,6.30
2022-11-24T16:56:22.828Z,6.30
2022-11-24T16:58:49.417Z,6.20
2022-11-24T17:01:16.069Z,6.20
2022-11-24T17:03:42.725Z,6.20
2022-11-24T17:06:12.286Z,6.10
2022-11-24T17:08:40.056Z,6.10
2022-11-24T17:11:20.956Z,6.10
2022-11-24T17:13:48.362Z,6.00
2022-11-24T17:16:17.579Z,6.00
2022-11-24T17:18:44.863Z,6.00
2022-11-24T17:21:22.944Z,6.00
2022-11-24T17:24:00.806Z,6.00
2022-11-24T17:26:27.845Z,6.00
2022-11-24T17:28:55.054Z,5.90
2022-11-24T17:31:26.826Z,6.00
2022-11-24T17:33:55.938Z,6.00
2022-11-24T17:36:23.127Z,6.00
2022-11-24T17:38:49.968Z,6.00
2022-11-24T17:41:20.848Z,6.00
2022-11-24T17:43:54.664Z,6.10
2022-11-24T17:46:21.277Z,6.00
2022-11-24T17:48:48.110Z,6.00
2022-11-24T17:51:17.185Z,6.00
2022-11-24T17:53:45.640Z,6.00
2022-11-24T17:56:14.644Z,6.00
2022-11-24T17:58:43.036Z,6.00
2022-11-24T18:01:11.147Z,6.00
2022-11-24T18:03:39.330Z,5.90
2022-11-24T18:06:12.612Z,5.90
2022-11-24T18:08:41.496Z,5.90
2022-11-24T18:11:11.391Z,6.00
2022-11-24T18:13:56.666Z,6.00
2022-11-24T18:16:25.475Z,6.10
2022-11-24T18:19:07.300Z,6.10
2022-11-24T18:21:34.823Z,6.20
2022-11-24T18:24:01.490Z,6.20
2022-11-24T18:26:28.102Z,6.20
2022-11-24T18:28:54.662Z,6.20
2022-11-24T18:31:21.324Z,6.30
2022-11-24T18:33:47.983Z,6.30
2022-11-24T18:36:17.562Z,6.30
2022-11-24T18:38:44.484Z,6.30
2022-11-24T18:41:13.270Z,6.20
2022-11-24T18:43:39.922Z,6.20
2022-11-24T18:46:08.559Z,6.20
2022-11-24T18:48:35.231Z,6.20
2022-11-24T18:51:01.885Z,6.30
2022-11-24T18:53:28.998Z,6.30
2022-11-24T18:56:00.086Z,6.30
2022-11-24T18:58:28.209Z,6.20
2022-11-24T19:00:55.857Z,6.20
2022-11-24T19:03:22.484Z,6.20
2022-11-24T19:05:49.073Z,6.20
2022-11-24T19:08:15.638Z,6.20
2022-11-24T19:10:42.227Z,6.20
2022-11-24T19:13:08.795Z,6.10
2022-11-24T19:15:35.852Z,6.10
2022-11-24T19:18:02.427Z,6.10
2022-11-24T19:20:29.184Z,6.10
2022-11-24T19:22:55.733Z,6.10
2022-11-24T19:25:22.336Z,6.00
2022-11-24T19:27:48.908Z,5.90
2022-11-24T19:30:16.909Z,5.80
2022-11-24T19:32:43.505Z,5.80
2022-11-24T19:35:10.081Z,5.70
2022-11-24T19:37:36.768Z,5.70
2022-11-24T19:40:04.309Z,5.60
2022-11-24T19:42:30.894Z,5.60
2022-11-24T19:44:57.460Z,5.50
2022-11-24T19:47:24.069Z,5.50
2022-11-24T19:49:50.660Z,5.50
2022-11-24T19:52:17.252Z,5.50
2022-11-24T19:54:43.840Z,5.40
2022-11-24T19:57:10.418Z,5.40
2022-11-24T19:59:36.993Z,5.30
2022-11-24T20:02:03.656Z,5.20
2022-11-24T20:04:30.309Z,5.20
2022-11-24T20:06:57.996Z,5.20
2022-11-24T20:09:24.696Z,5.10
2022-11-24T20:11:51.255Z,5.10
2022-11-24T20:14:17.888Z,5.10
2022-11-24T20:16:44.557Z,5.00
2022-11-24T20:19:12.891Z,5.00
2022-11-24T20:21:39.965Z,5.00
2022-11-24T20:24:10.879Z,4.90
2022-11-24T20:26:41.651Z,4.90
2022-11-24T20:29:08.358Z,4.90
2022-11-24T20:31:38.054Z,4.90
2022-11-24T20:34:06.056Z,4.80
2022-11-24T20:36:35.416Z,4.80
2022-11-24T20:39:05.981Z,4.70
2022-11-24T20:41:34.261Z,4.60
2022-11-24T20:44:03.642Z,4.50
2022-11-24T20:46:32.012Z,4.40
2022-11-24T20:48:59.645Z,4.50
2022-11-24T20:51:29.650Z,4.40
2022-11-24T20:53:58.840Z,4.30
2022-11-24T20:56:31.323Z,4.30
2022-11-24T20:58:58.821Z,4.30
2022-11-24T21:01:37.762Z,4.30
2022-11-24T21:04:09.572Z,4.20
2022-11-24T21:06:36.483Z,4.10
2022-11-24T21:09:04.348Z,4.10
2022-11-24T21:11:31.347Z,4.00
2022-11-24T21:13:58.747Z,4.00
2022-11-24T21:16:33.820Z,3.90
2022-11-24T21:19:03.508Z,3.90
2022-11-24T21:21:33.060Z,3.80
2022-11-24T21:24:04.378Z,3.70
2022-11-24T21:26:31.161Z,3.60
2022-11-24T21:28:57.891Z,3.60
2022-11-24T21:31:24.876Z,3.60
2022-11-24T21:33:53.304Z,3.50
2022-11-24T21:36:22.654Z,3.50
2022-11-24T21:38:54.504Z,3.50
2022-11-24T21:41:22.355Z,3.50
2022-11-24T21:43:49.372Z,3.60
2022-11-24T21:46:16.667Z,3.60
2022-11-24T21:48:43.741Z,3.60
2022-11-24T21:51:14.436Z,3.50
2022-11-24T21:53:41.302Z,3.40
2022-11-24T21:56:10.952Z,3.40
2022-11-24T21:58:37.511Z,3.40
2022-11-24T22:01:06.511Z,3.50
2022-11-24T22:03:33.084Z,3.40
2022-11-24T22:06:00.501Z,3.30
2022-11-24T22:08:28.460Z,3.20
2022-11-24T22:11:01.169Z,3.10
2022-11-24T22:13:27.760Z,3.10
2022-11-24T22:16:02.240Z,3.10
2022-11-24T22:18:32.995Z,3.10
2022-11-24T22:20:59.993Z,3.10
2022-11-24T22:23:26.556Z,3.10
2022-11-24T22:25:53.143Z,3.00
2022-11-24T22:28:19.724Z,3.10
2022-11-24T22:30:46.310Z,3.10
2022-11-24T22:33:13.676Z,3.10
2022-11-24T22:35:40.247Z,3.00
2022-11-24T22:38:06.808Z,3.00
2022-11-24T22:40:33.383Z,3.00
2022-11-24T22:42:59.924Z,3.00
2022-11-24T22:45:26.496Z,2.90
2022-11-24T22:47:56.236Z,2.90
2022-11-24T22:50:22.801Z,2.90
2022-11-24T22:52:50.275Z,2.80
2022-11-24T22:55:16.834Z,2.80
2022-11-24T22:57:47.549Z,2.80
2022-11-24T23:00:15.896Z,2.70
2022-11-24T23:02:42.488Z,2.80
2022-11-24T23:05:09.269Z,2.80
2022-11-24T23:07:36.341Z,2.80
2022-11-24T23:10:03.644Z,2.80
2022-11-24T23:12:30.214Z,2.80
2022-11-24T23:14:56.765Z,2.70
2022-11-24T23:17:23.321Z,2.70
2022-11-24T23:19:49.887Z,2.70
2022-11-24T23:22:16.479Z,2.60
2022-11-24T23:24:43.044Z,2.70
2022-11-24T23:27:09.722Z,2.60
2022-11-24T23:29:36.315Z,2.60
2022-11-24T23:32:03.011Z,2.50
2022-11-24T23:34:29.632Z,2.60
2022-11-24T23:36:56.192Z,2.50
2022-11-24T23:39:22.763Z,2.40
2022-11-24T23:41:49.335Z,2.30
2022-11-24T23:44:15.891Z,2.30
2022-11-24T23:46:42.480Z,2.40
2022-11-24T23:49:09.070Z,2.40
2022-11-24T23:51:35.640Z,2.30
2022-11-24T23:54:02.204Z,2.40
2022-11-24T23:56:31.057Z,2.30
2022-11-24T23:58:58.083Z,2.40
